Time;durP1;ratioP1;P1;durP2;ratioP2;P2;SDS_P1;SDS_P2;PMS_P1;PMS_P2;Temp;Humidity;BMP_temperature;BMP_pressure;BME280_temperature;BME280_humidity;BME280_pressure;Samples;Min_cycle;Max_cycle;Signal;HPM_P1;HPM_P2
2023/08/15 00:02:42;;;;;;;4.20;2.45;;;;;;;;;;8263250;28;20037;-60
2023/08/15 00:06:42;;;;;;;3.20;2.70;;;;;;;;;;8264908;28;20037;-60
2023/08/15 00:10:42;;;;;;;6.18;2.78;;;;;;;;;;8267065;28;20033;-60
2023/08/15 00:14:43;;;;;;;3.95;2.45;;;;;;;;;;8269951;28;20050;-60
2023/08/15 00:18:43;;;;;;;4.97;3.00;;;;;;;;;;8265069;28;20691;-60
2023/08/15 00:22:43;;;;;;;3.80;2.90;;;;;;;;;;8266856;28;20115;-60
2023/08/15 00:26:43;;;;;;;4.35;2.60;;;;;;;;;;8267203;28;20065;-60
2023/08/15 00:30:43;;;;;;;4.45;2.72;;;;;;;;;;8264965;28;20049;-60
2023/08/15 00:34:44;;;;;;;4.53;3.20;;;;;;;;;;8265845;28;20092;-60
2023/08/15 00:38:44;;;;;;;6.90;3.63;;;;;;;;;;8263782;28;20025;-60
2023/08/15 00:42:44;;;;;;;3.63;2.90;;;;;;;;;;8263985;28;20073;-60
2023/08/15 00:46:45;;;;;;;4.13;3.07;;;;;;;;;;8266410;28;20052;-60
2023/08/15 00:50:47;;;;;;;5.47;3.20;;;;;;;;;;8266385;28;20025;-60
2023/08/15 00:54:49;;;;;;;4.57;3.30;;;;;;;;;;8265075;28;20887;-60
2023/08/15 00:58:50;;;;;;;5.72;3.28;;;;;;;;;;8263944;28;20148;-60
2023/08/15 01:02:50;;;;;;;5.90;3.22;;;;;;;;;;8263417;28;20575;-61
2023/08/15 01:06:50;;;;;;;5.97;3.10;;;;;;;;;;8265443;28;20029;-60
2023/08/15 01:10:50;;;;;;;6.60;3.78;;;;;;;;;;8261631;28;20032;-60
2023/08/15 01:14:53;;;;;;;4.90;3.47;;;;;;;;;;8259966;28;20489;-60
2023/08/15 01:19:03;;;;;;;4.00;3.05;;;;;;;;;;8264582;28;20048;-60
2023/08/15 01:23:05;;;;;;;2.95;2.75;;;;;;;;;;8263815;28;20025;-60
2023/08/15 01:27:06;;;;;;;8.53;3.47;;;;;;;;;;8262978;28;20056;-60
2023/08/15 01:31:25;;;;;;;4.13;3.47;;;;;;;;;;8264496;28;20041;-60
2023/08/15 01:35:42;;;;;;;5.18;3.30;;;;;;;;;;8265087;28;20359;-59
2023/08/15 01:39:44;;;;;;;7.22;3.08;;;;;;;;;;8272119;28;20034;-60
2023/08/15 01:43:45;;;;;;;5.97;2.90;;;;;;;;;;8271760;28;20812;-61
2023/08/15 01:47:45;;;;;;;6.60;3.35;;;;;;;;;;8269282;28;20598;-60
2023/08/15 01:51:45;;;;;;;5.03;3.30;;;;;;;;;;8269978;28;20022;-60
2023/08/15 01:55:45;;;;;;;6.32;3.47;;;;;;;;;;8274192;28;20281;-60
2023/08/15 01:59:46;;;;;;;9.02;3.63;;;;;;;;;;8269321;28;20172;-60
2023/08/15 02:03:46;;;;;;;5.50;3.27;;;;;;;;;;8267694;28;20051;-60
2023/08/15 02:07:46;;;;;;;5.70;3.00;;;;;;;;;;8269441;28;20014;-59
2023/08/15 02:11:46;;;;;;;5.13;2.80;;;;;;;;;;8272367;28;20025;-59
2023/08/15 02:15:46;;;;;;;4.32;2.28;;;;;;;;;;8271402;28;20080;-60
2023/08/15 02:19:47;;;;;;;5.47;2.13;;;;;;;;;;8267357;28;20025;-59
2023/08/15 02:33:04;;;;;;;5.32;2.03;;;;;;;;;;8262773;28;20955;-59
2023/08/15 02:37:05;;;;;;;4.88;1.90;;;;;;;;;;8270088;28;20030;-59
2023/08/15 02:41:05;;;;;;;1.70;1.40;;;;;;;;;;8268996;28;20025;-60
2023/08/15 02:45:05;;;;;;;3.58;1.48;;;;;;;;;;8268224;28;20030;-60
2023/08/15 02:49:05;;;;;;;3.55;1.90;;;;;;;;;;8266377;28;20025;-59
2023/08/15 02:53:06;;;;;;;2.65;1.67;;;;;;;;;;8265384;28;20026;-59
2023/08/15 02:57:06;;;;;;;5.10;1.70;;;;;;;;;;8265534;28;20143;-59
2023/08/15 03:01:06;;;;;;;2.50;1.60;;;;;;;;;;8266657;28;20034;-60
2023/08/15 03:05:07;;;;;;;2.88;1.80;;;;;;;;;;8264604;28;20023;-59
2023/08/15 03:09:07;;;;;;;2.83;1.77;;;;;;;;;;8267028;28;20025;-59
2023/08/15 03:13:07;;;;;;;7.55;1.77;;;;;;;;;;8259102;28;20064;-59
2023/08/15 03:17:07;;;;;;;3.55;1.60;;;;;;;;;;8257689;28;20034;-59
2023/08/15 03:21:09;;;;;;;4.72;1.60;;;;;;;;;;8269653;28;20116;-59
2023/08/15 03:25:09;;;;;;;3.70;1.70;;;;;;;;;;8263173;28;20088;-59
2023/08/15 03:29:10;;;;;;;2.97;1.58;;;;;;;;;;8262514;28;20033;-59
2023/08/15 03:33:10;;;;;;;5.07;1.73;;;;;;;;;;8262855;28;20064;-59
2023/08/15 03:37:10;;;;;;;2.15;1.65;;;;;;;;;;8267770;28;20112;-59
2023/08/15 03:41:11;;;;;;;2.33;1.83;;;;;;;;;;8266687;28;20026;-58
2023/08/15 03:45:11;;;;;;;1.67;1.23;;;;;;;;;;8266543;28;20096;-60
2023/08/15 03:49:11;;;;;;;3.83;1.67;;;;;;;;;;8265017;28;20734;-59
2023/08/15 03:53:11;;;;;;;4.50;1.77;;;;;;;;;;8258042;28;20049;-59
2023/08/15 03:57:11;;;;;;;3.47;1.80;;;;;;;;;;8259417;28;20092;-59
2023/08/15 04:01:11;;;;;;;2.40;1.77;;;;;;;;;;8255207;28;20084;-59
2023/08/15 04:05:12;;;;;;;5.22;1.70;;;;;;;;;;8263971;28;20026;-59
2023/08/15 04:09:12;;;;;;;3.75;1.83;;;;;;;;;;8265169;28;20139;-59
2023/08/15 04:13:12;;;;;;;3.28;1.77;;;;;;;;;;8263615;28;20144;-59
2023/08/15 04:17:12;;;;;;;5.50;2.17;;;;;;;;;;8263871;28;20033;-59
2023/08/15 04:21:13;;;;;;;3.92;1.85;;;;;;;;;;8261261;28;20474;-59
2023/08/15 04:25:14;;;;;;;3.22;1.80;;;;;;;;;;8260685;28;20777;-59
2023/08/15 04:29:14;;;;;;;6.72;1.67;;;;;;;;;;8260681;28;20017;-59
2023/08/15 04:33:14;;;;;;;1.73;1.52;;;;;;;;;;8265257;28;20581;-59
2023/08/15 04:37:15;;;;;;;2.23;1.70;;;;;;;;;;8262967;28;20029;-59
2023/08/15 04:41:17;;;;;;;3.42;1.80;;;;;;;;;;8263103;28;20130;-59
2023/08/15 04:45:17;;;;;;;2.70;1.70;;;;;;;;;;8265178;28;20116;-59
2023/08/15 04:49:17;;;;;;;2.33;1.55;;;;;;;;;;8264462;28;20080;-61
2023/08/15 04:53:17;;;;;;;4.15;1.50;;;;;;;;;;8266769;28;20124;-59
2023/08/15 04:57:17;;;;;;;3.10;1.42;;;;;;;;;;8263224;28;20664;-59
2023/08/15 05:01:19;;;;;;;2.50;1.60;;;;;;;;;;8261980;28;20026;-59
2023/08/15 05:05:19;;;;;;;1.73;1.48;;;;;;;;;;8258010;28;20021;-59
2023/08/15 05:09:19;;;;;;;4.03;1.40;;;;;;;;;;8266909;28;20029;-59
2023/08/15 05:13:20;;;;;;;1.98;1.48;;;;;;;;;;8262854;28;20558;-59
2023/08/15 05:17:20;;;;;;;1.63;1.33;;;;;;;;;;8261944;28;20045;-59
2023/08/15 05:21:20;;;;;;;1.48;1.30;;;;;;;;;;8259633;28;20030;-59
2023/08/15 05:25:21;;;;;;;4.45;1.33;;;;;;;;;;8260108;28;20037;-59
2023/08/15 05:29:21;;;;;;;2.30;1.25;;;;;;;;;;8268586;28;20115;-59
2023/08/15 05:33:21;;;;;;;1.95;1.50;;;;;;;;;;8262874;28;20044;-59
2023/08/15 05:37:21;;;;;;;2.22;1.65;;;;;;;;;;8263665;28;20021;-59
2023/08/15 05:41:21;;;;;;;3.20;1.70;;;;;;;;;;8263011;28;20033;-59
2023/08/15 05:45:21;;;;;;;4.10;1.70;;;;;;;;;;8262920;28;20103;-59
2023/08/15 05:49:22;;;;;;;2.95;1.80;;;;;;;;;;8263805;28;20036;-59
2023/08/15 05:53:22;;;;;;;5.63;2.00;;;;;;;;;;8266234;28;20037;-59
2023/08/15 05:57:22;;;;;;;4.67;2.10;;;;;;;;;;8269060;28;20051;-59
2023/08/15 06:01:23;;;;;;;5.30;1.73;;;;;;;;;;8266242;28;20029;-59
2023/08/15 06:05:23;;;;;;;2.57;1.70;;;;;;;;;;8262493;28;20026;-59
2023/08/15 06:09:23;;;;;;;5.75;1.85;;;;;;;;;;8262005;28;20560;-59
2023/08/15 06:13:24;;;;;;;2.70;1.90;;;;;;;;;;8263574;28;20057;-60
2023/08/15 06:17:24;;;;;;;2.85;1.92;;;;;;;;;;8261335;28;20119;-59
2023/08/15 06:21:24;;;;;;;4.22;1.88;;;;;;;;;;8263091;28;20135;-60
2023/08/15 06:25:24;;;;;;;4.32;1.75;;;;;;;;;;8265250;28;20017;-61
2023/08/15 06:29:25;;;;;;;7.85;1.63;;;;;;;;;;8267042;28;20036;-60
2023/08/15 06:33:25;;;;;;;4.00;1.60;;;;;;;;;;8269163;28;20041;-60
2023/08/15 06:37:25;;;;;;;3.60;1.50;;;;;;;;;;8267719;28;20227;-60
2023/08/15 06:41:26;;;;;;;2.47;1.70;;;;;;;;;;8268559;28;20714;-60
2023/08/15 06:45:26;;;;;;;2.65;1.30;;;;;;;;;;8267872;28;20049;-61
2023/08/15 06:49:26;;;;;;;1.95;1.50;;;;;;;;;;8267860;28;20149;-61
2023/08/15 06:53:27;;;;;;;2.58;1.35;;;;;;;;;;8268573;28;20026;-61
2023/08/15 06:57:27;;;;;;;2.72;1.40;;;;;;;;;;8268971;28;20025;-61
2023/08/15 07:01:27;;;;;;;1.30;1.20;;;;;;;;;;8267903;28;20152;-61
2023/08/15 07:05:28;;;;;;;2.47;1.30;;;;;;;;;;8271077;28;20064;-61
2023/08/15 07:09:29;;;;;;;2.83;1.30;;;;;;;;;;8266047;28;20034;-62
2023/08/15 07:13:29;;;;;;;2.45;1.05;;;;;;;;;;8266630;28;20096;-61
2023/08/15 07:17:29;;;;;;;3.13;1.20;;;;;;;;;;8262249;28;20483;-61
2023/08/15 07:21:29;;;;;;;1.65;1.20;;;;;;;;;;8268681;28;20153;-61
2023/08/15 07:25:29;;;;;;;1.50;1.35;;;;;;;;;;8263622;28;20029;-61
2023/08/15 07:29:29;;;;;;;1.13;0.93;;;;;;;;;;8265680;28;20037;-61
2023/08/15 07:33:30;;;;;;;3.50;1.25;;;;;;;;;;8262888;28;20037;-61
2023/08/15 07:37:30;;;;;;;1.77;1.27;;;;;;;;;;8256230;28;20799;-61
2023/08/15 07:41:31;;;;;;;2.90;1.30;;;;;;;;;;8267393;28;20021;-61
2023/08/15 07:45:31;;;;;;;2.33;1.45;;;;;;;;;;8262369;28;20604;-61
2023/08/15 07:49:31;;;;;;;1.48;1.30;;;;;;;;;;8260223;28;20355;-61
2023/08/15 07:53:31;;;;;;;1.90;1.20;;;;;;;;;;8269109;28;20105;-61
2023/08/15 07:57:32;;;;;;;2.83;1.52;;;;;;;;;;8267035;28;20057;-61
2023/08/15 08:01:32;;;;;;;4.45;1.35;;;;;;;;;;8267222;28;20053;-61
2023/08/15 08:05:32;;;;;;;1.73;1.20;;;;;;;;;;8266212;28;20020;-61
2023/08/15 08:09:32;;;;;;;1.92;1.15;;;;;;;;;;8262879;28;20062;-61
2023/08/15 08:13:33;;;;;;;3.30;1.27;;;;;;;;;;8265401;28;20030;-61
2023/08/15 08:17:33;;;;;;;2.40;1.25;;;;;;;;;;8264300;28;20108;-61
2023/08/15 08:21:33;;;;;;;4.90;1.80;;;;;;;;;;8267822;28;20024;-61
2023/08/15 08:25:34;;;;;;;4.88;1.30;;;;;;;;;;8265164;28;20900;-61
2023/08/15 08:29:34;;;;;;;1.67;1.10;;;;;;;;;;8265951;28;20057;-61
2023/08/15 08:33:34;;;;;;;2.55;1.00;;;;;;;;;;8261007;28;20114;-61
2023/08/15 08:37:35;;;;;;;4.15;1.10;;;;;;;;;;8264266;28;20188;-62
2023/08/15 08:41:38;;;;;;;1.38;1.02;;;;;;;;;;8268854;28;20132;-61
2023/08/15 08:45:40;;;;;;;1.25;1.02;;;;;;;;;;8260471;28;20037;-61
2023/08/15 08:49:40;;;;;;;2.47;1.15;;;;;;;;;;8261279;28;20136;-61
2023/08/15 08:53:40;;;;;;;2.03;1.20;;;;;;;;;;8263409;28;20071;-61
2023/08/15 08:57:42;;;;;;;1.13;0.98;;;;;;;;;;8262302;28;20026;-62
2023/08/15 09:01:43;;;;;;;2.20;1.20;;;;;;;;;;8264528;28;20029;-62
2023/08/15 09:05:43;;;;;;;1.30;1.20;;;;;;;;;;8260678;28;20032;-61
2023/08/15 09:09:44;;;;;;;1.13;1.02;;;;;;;;;;8262251;28;20708;-61
2023/08/15 09:13:47;;;;;;;1.70;1.10;;;;;;;;;;8260735;28;20026;-61
2023/08/15 09:17:47;;;;;;;1.45;1.10;;;;;;;;;;8261173;28;20038;-61
2023/08/15 09:21:47;;;;;;;2.38;1.40;;;;;;;;;;8266504;28;20783;-61
2023/08/15 09:25:49;;;;;;;2.97;1.40;;;;;;;;;;8263192;28;20151;-61
2023/08/15 09:29:49;;;;;;;2.47;1.50;;;;;;;;;;8259499;28;20536;-61
2023/08/15 09:33:49;;;;;;;3.63;1.60;;;;;;;;;;8259813;28;20038;-62
2023/08/15 09:37:49;;;;;;;2.80;1.60;;;;;;;;;;8257100;28;20541;-62
2023/08/15 09:41:52;;;;;;;3.00;1.73;;;;;;;;;;8261611;28;20057;-61
2023/08/15 09:45:52;;;;;;;4.25;1.73;;;;;;;;;;8259875;28;20046;-61
2023/08/15 09:49:52;;;;;;;4.37;1.80;;;;;;;;;;8259879;28;20441;-61
2023/08/15 09:53:53;;;;;;;4.83;1.60;;;;;;;;;;8261913;28;20025;-60
2023/08/15 09:57:53;;;;;;;6.00;1.80;;;;;;;;;;8266591;28;20117;-60
2023/08/15 10:01:55;;;;;;;2.75;1.83;;;;;;;;;;8266967;28;20718;-60
2023/08/15 10:05:56;;;;;;;5.10;1.70;;;;;;;;;;8262032;28;20342;-60
2023/08/15 10:09:57;;;;;;;4.47;1.80;;;;;;;;;;8267044;28;20803;-60
2023/08/15 10:13:57;;;;;;;5.13;1.98;;;;;;;;;;8265912;28;20030;-60
2023/08/15 10:17:58;;;;;;;14.18;2.92;;;;;;;;;;8263308;28;20033;-59
2023/08/15 10:21:58;;;;;;;6.32;2.60;;;;;;;;;;8268496;28;20508;-59
2023/08/15 10:25:58;;;;;;;7.47;2.38;;;;;;;;;;8265050;28;20052;-60
2023/08/15 10:29:59;;;;;;;9.40;2.47;;;;;;;;;;8266714;28;20041;-59
2023/08/15 10:34:01;;;;;;;3.88;2.30;;;;;;;;;;8267139;28;20271;-59
2023/08/15 10:38:11;;;;;;;6.13;2.45;;;;;;;;;;8266281;28;20045;-60
2023/08/15 10:42:12;;;;;;;6.05;2.38;;;;;;;;;;8269962;28;20032;-60
2023/08/15 10:46:12;;;;;;;4.47;2.28;;;;;;;;;;8260933;28;20128;-59
2023/08/15 10:50:12;;;;;;;4.00;2.35;;;;;;;;;;8266675;28;20121;-60
2023/08/15 10:54:13;;;;;;;5.55;2.08;;;;;;;;;;8268944;28;20022;-59
2023/08/15 10:58:14;;;;;;;7.18;2.63;;;;;;;;;;8268835;28;20119;-59
2023/08/15 11:02:14;;;;;;;5.30;2.40;;;;;;;;;;8266577;28;20034;-59
2023/08/15 11:06:15;;;;;;;4.95;2.58;;;;;;;;;;8266366;28;21036;-59
2023/08/15 11:10:15;;;;;;;7.10;2.60;;;;;;;;;;8265897;28;20394;-59
2023/08/15 11:14:16;;;;;;;6.30;2.50;;;;;;;;;;8264859;28;20600;-59
2023/08/15 11:18:20;;;;;;;4.38;2.35;;;;;;;;;;8264399;28;20040;-59
2023/08/15 11:22:21;;;;;;;4.72;2.60;;;;;;;;;;8266704;28;20029;-59
2023/08/15 11:26:22;;;;;;;5.43;2.47;;;;;;;;;;8267819;28;20044;-59
2023/08/15 11:30:23;;;;;;;4.32;2.75;;;;;;;;;;8265715;28;20296;-59
2023/08/15 11:34:23;;;;;;;5.40;2.55;;;;;;;;;;8260739;28;20058;-59
2023/08/15 11:38:23;;;;;;;5.75;2.38;;;;;;;;;;8260351;28;20340;-59
2023/08/15 11:42:24;;;;;;;4.85;2.40;;;;;;;;;;8264236;28;20135;-61
2023/08/15 11:46:27;;;;;;;3.10;2.27;;;;;;;;;;8259859;28;20064;-60
2023/08/15 11:50:28;;;;;;;7.82;2.63;;;;;;;;;;8261608;28;21078;-59
2023/08/15 11:54:28;;;;;;;2.80;2.28;;;;;;;;;;8263996;28;20095;-59
2023/08/15 11:58:30;;;;;;;7.93;2.63;;;;;;;;;;8266374;28;20029;-59
2023/08/15 12:02:30;;;;;;;7.00;2.58;;;;;;;;;;8264808;28;20073;-58
2023/08/15 12:06:30;;;;;;;6.90;3.40;;;;;;;;;;8263318;28;20041;-59
2023/08/15 12:10:30;;;;;;;5.40;2.67;;;;;;;;;;8260713;28;20040;-60
2023/08/15 12:14:31;;;;;;;5.20;2.33;;;;;;;;;;8267239;28;20727;-59
2023/08/15 12:18:31;;;;;;;4.32;2.40;;;;;;;;;;8267066;28;20280;-60
2023/08/15 12:22:32;;;;;;;3.05;2.50;;;;;;;;;;8261827;28;20033;-60
2023/08/15 12:26:32;;;;;;;4.82;2.63;;;;;;;;;;8266121;28;20927;-59
2023/08/15 12:30:32;;;;;;;5.35;2.35;;;;;;;;;;8264805;28;20049;-59
2023/08/15 12:34:33;;;;;;;4.20;2.40;;;;;;;;;;8259499;28;20032;-60
2023/08/15 12:38:33;;;;;;;4.57;2.57;;;;;;;;;;8265561;28;20087;-59
2023/08/15 12:42:33;;;;;;;6.05;2.75;;;;;;;;;;8264190;28;20033;-59
2023/08/15 12:46:33;;;;;;;3.80;2.77;;;;;;;;;;8264129;28;20046;-59
2023/08/15 12:50:33;;;;;;;5.05;3.15;;;;;;;;;;8262814;28;20280;-60
2023/08/15 12:54:35;;;;;;;6.80;2.40;;;;;;;;;;8265461;28;20790;-59
2023/08/15 12:58:35;;;;;;;5.00;2.60;;;;;;;;;;8266862;28;20053;-60
2023/08/15 13:02:35;;;;;;;5.57;2.70;;;;;;;;;;8264568;28;20284;-59
2023/08/15 13:06:36;;;;;;;7.33;2.77;;;;;;;;;;8265020;28;20037;-59
2023/08/15 13:10:36;;;;;;;4.03;2.50;;;;;;;;;;8262026;28;20150;-59
2023/08/15 13:14:36;;;;;;;3.30;2.30;;;;;;;;;;8265395;28;20097;-58
2023/08/15 13:18:36;;;;;;;4.65;2.47;;;;;;;;;;8262733;28;20513;-59
2023/08/15 13:22:37;;;;;;;3.07;2.30;;;;;;;;;;8263061;28;20029;-59
2023/08/15 13:26:37;;;;;;;2.30;2.10;;;;;;;;;;8264112;28;20137;-61
2023/08/15 13:30:37;;;;;;;5.35;2.30;;;;;;;;;;8262065;28;20044;-59
2023/08/15 13:34:37;;;;;;;4.65;2.40;;;;;;;;;;8265529;28;20025;-59
2023/08/15 13:38:38;;;;;;;3.25;2.30;;;;;;;;;;8261540;28;20950;-60
2023/08/15 13:42:38;;;;;;;4.47;2.65;;;;;;;;;;8265607;28;20029;-60
2023/08/15 13:46:38;;;;;;;2.38;2.03;;;;;;;;;;8267027;28;20042;-60
2023/08/15 13:50:38;;;;;;;4.00;2.10;;;;;;;;;;8263983;28;20014;-59
2023/08/15 13:54:39;;;;;;;3.65;2.05;;;;;;;;;;8267319;28;20032;-61
2023/08/15 13:58:39;;;;;;;4.50;2.47;;;;;;;;;;8271468;28;20111;-60
2023/08/15 14:02:39;;;;;;;4.00;2.10;;;;;;;;;;8267053;28;20103;-60
2023/08/15 14:06:39;;;;;;;2.83;1.88;;;;;;;;;;8266830;28;20037;-60
2023/08/15 14:10:40;;;;;;;2.90;1.90;;;;;;;;;;8265550;28;20144;-61
2023/08/15 14:14:40;;;;;;;3.97;1.85;;;;;;;;;;8267543;28;20090;-60
2023/08/15 14:18:40;;;;;;;2.83;1.70;;;;;;;;;;8265781;28;20109;-60
2023/08/15 14:22:41;;;;;;;3.53;1.83;;;;;;;;;;8266990;28;20022;-60
2023/08/15 14:26:41;;;;;;;2.17;1.52;;;;;;;;;;8264790;28;20729;-60
2023/08/15 14:30:41;;;;;;;2.65;1.60;;;;;;;;;;8267408;28;20045;-60
2023/08/15 14:34:41;;;;;;;1.50;1.40;;;;;;;;;;8263150;28;20028;-61
2023/08/15 14:38:42;;;;;;;2.92;1.60;;;;;;;;;;8266131;28;20024;-60
2023/08/15 14:42:42;;;;;;;1.75;1.50;;;;;;;;;;8265374;28;20107;-60
2023/08/15 14:46:42;;;;;;;3.92;1.60;;;;;;;;;;8264781;28;20793;-61
2023/08/15 14:50:42;;;;;;;2.05;1.40;;;;;;;;;;8266361;28;20032;-60
2023/08/15 14:54:43;;;;;;;1.57;1.30;;;;;;;;;;8262360;28;20041;-61
2023/08/15 14:58:43;;;;;;;2.28;1.50;;;;;;;;;;8267144;28;20288;-60
2023/08/15 15:02:43;;;;;;;5.03;1.50;;;;;;;;;;8264651;28;21483;-60
2023/08/15 15:06:43;;;;;;;2.97;1.40;;;;;;;;;;8262817;28;20145;-60
2023/08/15 15:10:44;;;;;;;5.22;1.85;;;;;;;;;;8264154;28;20137;-60
2023/08/15 15:14:44;;;;;;;3.60;1.50;;;;;;;;;;8262555;28;20075;-60
2023/08/15 15:18:44;;;;;;;4.10;1.60;;;;;;;;;;8263815;28;20403;-60
2023/08/15 15:22:44;;;;;;;3.10;1.90;;;;;;;;;;8260646;28;20415;-60
2023/08/15 15:26:45;;;;;;;2.08;1.48;;;;;;;;;;8260670;28;20367;-61
2023/08/15 15:30:46;;;;;;;1.47;1.37;;;;;;;;;;8262930;28;20140;-60
2023/08/15 15:34:47;;;;;;;1.98;1.48;;;;;;;;;;8266186;28;20536;-60
2023/08/15 15:38:47;;;;;;;2.28;1.45;;;;;;;;;;8264338;28;20037;-60
2023/08/15 15:42:48;;;;;;;2.45;1.20;;;;;;;;;;8265205;28;20022;-60
2023/08/15 15:46:48;;;;;;;1.48;1.30;;;;;;;;;;8265578;28;20096;-60
2023/08/15 15:50:48;;;;;;;1.70;1.40;;;;;;;;;;8266897;28;20026;-61
2023/08/15 15:54:48;;;;;;;2.85;1.58;;;;;;;;;;8265849;28;20052;-61
2023/08/15 15:58:49;;;;;;;2.72;1.40;;;;;;;;;;8263603;28;20976;-61
2023/08/15 16:02:49;;;;;;;5.63;1.60;;;;;;;;;;8266685;28;20041;-61
2023/08/15 16:06:49;;;;;;;1.67;1.27;;;;;;;;;;8264742;28;20864;-61
2023/08/15 16:10:49;;;;;;;2.97;1.30;;;;;;;;;;8264981;28;20028;-61
2023/08/15 16:14:49;;;;;;;2.35;1.50;;;;;;;;;;8264653;28;20838;-62
2023/08/15 16:18:50;;;;;;;2.00;1.50;;;;;;;;;;8262756;28;20048;-61
2023/08/15 16:22:50;;;;;;;2.38;1.40;;;;;;;;;;8264511;28;20017;-61
2023/08/15 16:26:50;;;;;;;2.42;1.50;;;;;;;;;;8261328;28;20037;-61
2023/08/15 16:30:51;;;;;;;3.83;1.60;;;;;;;;;;8262585;28;20044;-62
2023/08/15 16:34:51;;;;;;;3.28;1.50;;;;;;;;;;8261045;28;20033;-61
2023/08/15 16:38:51;;;;;;;2.70;1.67;;;;;;;;;;8259415;28;20087;-61
2023/08/15 16:43:10;;;;;;;2.40;1.48;;;;;;;;;;8264007;28;20030;-61
2023/08/15 16:47:11;;;;;;;3.70;1.35;;;;;;;;;;8274779;28;21043;-61
2023/08/15 16:51:11;;;;;;;3.15;1.33;;;;;;;;;;8265627;28;20504;-61
2023/08/15 16:55:11;;;;;;;2.40;1.50;;;;;;;;;;8262717;28;20827;-61
2023/08/15 16:59:12;;;;;;;3.17;1.33;;;;;;;;;;8262923;28;20041;-61
2023/08/15 17:03:12;;;;;;;1.98;1.50;;;;;;;;;;8261821;28;20104;-61
2023/08/15 17:07:12;;;;;;;3.47;1.50;;;;;;;;;;8263728;28;20136;-62
2023/08/15 17:11:12;;;;;;;1.40;1.30;;;;;;;;;;8261924;28;20338;-61
2023/08/15 17:15:15;;;;;;;2.97;1.47;;;;;;;;;;8261704;28;20029;-62
2023/08/15 17:19:15;;;;;;;4.40;1.40;;;;;;;;;;8262173;28;20390;-62
2023/08/15 17:23:15;;;;;;;4.45;1.83;;;;;;;;;;8263822;28;20116;-61
2023/08/15 17:27:16;;;;;;;2.05;1.83;;;;;;;;;;8260849;28;20013;-62
2023/08/15 17:31:16;;;;;;;2.47;1.70;;;;;;;;;;8263426;28;20802;-61
2023/08/15 17:35:16;;;;;;;1.50;1.40;;;;;;;;;;8259481;28;20091;-61
2023/08/15 17:39:16;;;;;;;2.63;1.70;;;;;;;;;;8262536;28;20143;-61
2023/08/15 17:43:17;;;;;;;3.58;1.60;;;;;;;;;;8262522;28;20018;-61
2023/08/15 17:47:17;;;;;;;1.60;1.45;;;;;;;;;;8260895;28;20084;-61
2023/08/15 17:51:17;;;;;;;3.92;1.80;;;;;;;;;;8257205;28;20720;-61
2023/08/15 17:55:17;;;;;;;1.90;1.40;;;;;;;;;;8259540;28;20021;-61
2023/08/15 17:59:18;;;;;;;3.53;1.85;;;;;;;;;;8257339;28;20040;-61
2023/08/15 18:03:18;;;;;;;1.88;1.63;;;;;;;;;;8253899;28;20107;-61
2023/08/15 18:07:18;;;;;;;4.22;1.70;;;;;;;;;;8257464;28;20029;-60
2023/08/15 18:11:18;;;;;;;3.72;1.73;;;;;;;;;;8260469;28;20029;-61
2023/08/15 18:15:18;;;;;;;1.67;1.52;;;;;;;;;;8253224;28;20096;-61
2023/08/15 18:19:19;;;;;;;2.50;1.80;;;;;;;;;;8262366;28;20026;-61
2023/08/15 18:23:19;;;;;;;3.72;1.70;;;;;;;;;;8265534;28;20030;-61
2023/08/15 18:27:19;;;;;;;1.83;1.50;;;;;;;;;;8266422;28;20037;-62
2023/08/15 18:31:20;;;;;;;3.13;1.70;;;;;;;;;;8266522;28;20045;-61
2023/08/15 18:35:20;;;;;;;1.70;1.60;;;;;;;;;;8264438;28;20038;-61
2023/08/15 18:39:21;;;;;;;2.08;1.77;;;;;;;;;;8265696;28;20036;-62
2023/08/15 18:43:22;;;;;;;2.85;1.70;;;;;;;;;;8256953;28;20075;-61
2023/08/15 18:47:22;;;;;;;2.05;1.70;;;;;;;;;;8261713;28;20052;-61
2023/08/15 18:51:22;;;;;;;2.72;1.90;;;;;;;;;;8266154;28;20378;-61
2023/08/15 18:55:22;;;;;;;3.60;1.60;;;;;;;;;;8255886;28;20037;-61
2023/08/15 18:59:23;;;;;;;4.23;1.60;;;;;;;;;;8262031;28;20080;-61
2023/08/15 19:03:24;;;;;;;2.30;1.40;;;;;;;;;;8263230;28;20037;-61
2023/08/15 19:07:24;;;;;;;2.95;1.58;;;;;;;;;;8260664;28;20021;-61
2023/08/15 19:11:25;;;;;;;4.40;1.60;;;;;;;;;;8262661;28;20085;-61
2023/08/15 19:15:25;;;;;;;1.40;1.30;;;;;;;;;;8260747;28;20118;-61
2023/08/15 19:19:26;;;;;;;4.72;1.45;;;;;;;;;;8264742;28;20026;-61
2023/08/15 19:23:26;;;;;;;2.58;1.20;;;;;;;;;;8265187;28;20148;-61
2023/08/15 19:27:26;;;;;;;3.47;1.40;;;;;;;;;;8266727;28;20791;-61
2023/08/15 19:31:26;;;;;;;1.50;1.40;;;;;;;;;;8265024;28;20124;-60
2023/08/15 19:35:26;;;;;;;3.83;1.50;;;;;;;;;;8263655;28;20034;-61
2023/08/15 19:39:27;;;;;;;3.47;1.60;;;;;;;;;;8267694;28;20032;-61
2023/08/15 19:43:27;;;;;;;5.85;1.83;;;;;;;;;;8261644;28;20021;-60
2023/08/15 19:47:27;;;;;;;3.35;1.50;;;;;;;;;;8263461;28;20038;-60
2023/08/15 19:51:27;;;;;;;4.80;1.60;;;;;;;;;;8261105;28;20128;-61
2023/08/15 19:55:29;;;;;;;3.15;1.60;;;;;;;;;;8262352;28;20021;-61
2023/08/15 19:59:29;;;;;;;2.95;1.30;;;;;;;;;;8262293;28;20147;-60
2023/08/15 20:03:29;;;;;;;1.50;1.40;;;;;;;;;;8264007;28;20128;-60
2023/08/15 20:07:30;;;;;;;3.50;1.70;;;;;;;;;;8263791;28;20018;-60
2023/08/15 20:11:30;;;;;;;2.85;1.50;;;;;;;;;;8260534;28;20026;-61
2023/08/15 20:15:30;;;;;;;1.58;1.40;;;;;;;;;;8263717;28;20108;-60
2023/08/15 20:19:30;;;;;;;1.80;1.50;;;;;;;;;;8266048;28;20025;-61
2023/08/15 20:23:30;;;;;;;1.70;1.60;;;;;;;;;;8266578;28;20030;-60
2023/08/15 20:27:31;;;;;;;2.30;1.58;;;;;;;;;;8259320;28;20079;-60
2023/08/15 20:31:31;;;;;;;2.38;1.60;;;;;;;;;;8264693;28;20044;-59
2023/08/15 20:35:34;;;;;;;2.60;1.80;;;;;;;;;;8258874;28;20033;-60
2023/08/15 20:39:34;;;;;;;3.97;1.70;;;;;;;;;;8261134;28;20018;-60
2023/08/15 20:43:34;;;;;;;4.63;1.60;;;;;;;;;;8257676;28;20036;-61
2023/08/15 20:47:34;;;;;;;2.45;1.80;;;;;;;;;;8261573;28;20038;-60
2023/08/15 20:51:35;;;;;;;2.05;1.58;;;;;;;;;;8264291;28;20132;-62
2023/08/15 20:55:35;;;;;;;2.23;1.70;;;;;;;;;;8260526;28;20053;-60
2023/08/15 20:59:35;;;;;;;2.23;1.73;;;;;;;;;;8261306;28;20600;-61
2023/08/15 21:03:35;;;;;;;2.08;1.88;;;;;;;;;;8264158;28;20331;-60
2023/08/15 21:07:35;;;;;;;4.32;1.83;;;;;;;;;;8262935;28;20026;-60
2023/08/15 21:11:36;;;;;;;1.70;1.60;;;;;;;;;;8263772;28;20032;-60
2023/08/15 21:15:36;;;;;;;6.43;1.80;;;;;;;;;;8261358;28;20044;-61
2023/08/15 21:19:36;;;;;;;4.28;2.00;;;;;;;;;;8262906;28;20057;-61
2023/08/15 21:23:37;;;;;;;2.95;1.63;;;;;;;;;;8263337;28;20025;-60
2023/08/15 21:27:37;;;;;;;2.22;1.92;;;;;;;;;;8260071;28;20028;-60
2023/08/15 21:31:37;;;;;;;3.93;1.60;;;;;;;;;;8262094;28;21034;-60
2023/08/15 21:35:37;;;;;;;5.65;1.90;;;;;;;;;;8258020;28;20639;-60
2023/08/15 21:39:38;;;;;;;2.65;1.60;;;;;;;;;;8261221;28;20028;-60
2023/08/15 21:43:38;;;;;;;2.45;1.63;;;;;;;;;;8251771;28;20106;-60
2023/08/15 21:47:38;;;;;;;2.63;1.70;;;;;;;;;;8256199;28;20042;-60
2023/08/15 21:51:38;;;;;;;4.20;1.83;;;;;;;;;;8254585;28;20037;-60
2023/08/15 21:55:39;;;;;;;5.35;1.77;;;;;;;;;;8259253;28;20573;-60
2023/08/15 21:59:39;;;;;;;5.43;1.63;;;;;;;;;;8262372;28;20080;-60
2023/08/15 22:03:39;;;;;;;4.25;1.90;;;;;;;;;;8265917;28;20077;-60
2023/08/15 22:07:39;;;;;;;2.40;1.60;;;;;;;;;;8262382;28;20821;-60
2023/08/15 22:11:39;;;;;;;2.03;1.80;;;;;;;;;;8267538;28;20025;-60
2023/08/15 22:15:40;;;;;;;3.38;1.90;;;;;;;;;;8265546;28;20030;-60
2023/08/15 22:19:40;;;;;;;3.43;1.90;;;;;;;;;;8261473;28;20022;-60
2023/08/15 22:23:40;;;;;;;2.40;2.20;;;;;;;;;;8264517;28;20037;-60
2023/08/15 22:27:40;;;;;;;2.00;1.85;;;;;;;;;;8267337;28;20030;-60
2023/08/15 22:31:41;;;;;;;3.25;2.00;;;;;;;;;;8266105;28;20034;-60
2023/08/15 22:35:41;;;;;;;2.15;1.90;;;;;;;;;;8266352;28;20029;-60
2023/08/15 22:39:41;;;;;;;3.97;2.05;;;;;;;;;;8263742;28;20084;-60
2023/08/15 22:43:42;;;;;;;1.77;1.67;;;;;;;;;;8262507;28;20053;-60
2023/08/15 22:47:42;;;;;;;2.30;2.10;;;;;;;;;;8258954;28;20129;-60
2023/08/15 22:51:42;;;;;;;5.63;2.07;;;;;;;;;;8264022;28;20479;-60
2023/08/15 22:55:42;;;;;;;2.20;2.00;;;;;;;;;;8260055;28;20026;-59
2023/08/15 22:59:42;;;;;;;4.25;2.15;;;;;;;;;;8267334;28;20033;-59
2023/08/15 23:03:43;;;;;;;3.08;1.90;;;;;;;;;;8258547;28;20125;-59
2023/08/15 23:07:43;;;;;;;3.63;2.05;;;;;;;;;;8261396;28;20283;-59
2023/08/15 23:11:43;;;;;;;2.65;1.70;;;;;;;;;;8262653;28;20044;-60
2023/08/15 23:15:43;;;;;;;1.93;1.83;;;;;;;;;;8259100;28;20441;-60
2023/08/15 23:19:43;;;;;;;1.80;1.70;;;;;;;;;;8265490;28;20458;-60
2023/08/15 23:23:44;;;;;;;1.85;1.75;;;;;;;;;;8266445;28;20036;-60
2023/08/15 23:27:44;;;;;;;3.50;2.00;;;;;;;;;;8265838;28;20140;-60
2023/08/15 23:31:44;;;;;;;2.70;1.80;;;;;;;;;;8266169;28;20045;-60
2023/08/15 23:35:45;;;;;;;2.55;2.17;;;;;;;;;;8266353;28;20831;-61
2023/08/15 23:39:45;;;;;;;3.50;1.98;;;;;;;;;;8267822;28;20079;-61
2023/08/15 23:43:45;;;;;;;4.18;1.90;;;;;;;;;;8267226;28;21062;-60
2023/08/15 23:47:45;;;;;;;2.20;2.00;;;;;;;;;;8263699;28;20052;-59
2023/08/15 23:51:46;;;;;;;2.30;2.10;;;;;;;;;;8265374;28;20037;-60
2023/08/15 23:55:46;;;;;;;3.42;1.80;;;;;;;;;;8265285;28;20044;-60
2023/08/15 23:59:46;;;;;;;3.10;1.75;;;;;;;;;;8262019;28;20034;-60
